Time;durP1;ratioP1;P1;durP2;ratioP2;P2;SDS_P1;SDS_P2;PMS_P1;PMS_P2;Temp;Humidity;BMP_temperature;BMP_pressure;BME280_temperature;BME280_humidity;BME280_pressure;Samples;Min_cycle;Max_cycle;Signal;HPM_P1;HPM_P2
2023/05/31 00:02:24;;;;;;;8.50;1.90;;;;;;;9.61;68.75;101395.87;105052;1264;73890;-61
2023/05/31 00:04:53;;;;;;;4.10;2.60;;;;;;;9.57;68.82;101399.79;105051;1263;69187;-61
2023/05/31 00:07:21;;;;;;;4.80;2.10;;;;;;;9.59;68.98;101398.17;105048;1263;69201;-61
2023/05/31 00:09:49;;;;;;;5.00;2.10;;;;;;;9.67;69.33;101396.31;104996;1263;74867;-61
2023/05/31 00:12:18;;;;;;;3.50;1.80;;;;;;;9.73;69.01;101399.33;104996;1263;83058;-61
2023/05/31 00:14:46;;;;;;;6.00;1.90;;;;;;;9.68;68.76;101398.54;104987;1270;73787;-61
2023/05/31 00:17:15;;;;;;;6.00;1.70;;;;;;;9.63;68.75;101397.77;105087;1264;69190;-61
2023/05/31 00:19:46;;;;;;;6.10;2.40;;;;;;;9.58;68.62;101399.42;104623;1267;69173;-61
2023/05/31 00:22:16;;;;;;;5.00;1.90;;;;;;;9.56;68.82;101395.63;104654;1270;74451;-61
2023/05/31 00:24:45;;;;;;;4.20;2.10;;;;;;;9.57;69.10;101402.75;104654;1270;82536;-61
2023/05/31 00:27:13;;;;;;;5.20;2.40;;;;;;;9.58;69.12;101402.71;104614;1267;73646;-61
2023/05/31 00:29:41;;;;;;;3.70;2.00;;;;;;;9.56;68.88;101399.27;104444;1271;69264;-61
2023/05/31 00:32:10;;;;;;;3.30;1.80;;;;;;;9.51;68.86;101400.06;104628;1267;69197;-61
2023/05/31 00:34:38;;;;;;;5.30;2.10;;;;;;;9.45;68.80;101399.45;104615;1269;74112;-61
2023/05/31 00:37:06;;;;;;;6.80;2.00;;;;;;;9.39;68.97;101401.13;104535;1269;82283;-61
2023/05/31 00:39:35;;;;;;;5.30;1.80;;;;;;;9.36;69.17;101398.02;104969;1260;73520;-61
2023/05/31 00:42:04;;;;;;;7.60;2.30;;;;;;;9.35;69.24;101398.91;104995;1261;69198;-61
2023/05/31 00:44:33;;;;;;;5.30;2.20;;;;;;;9.30;69.22;101394.64;105074;1263;69203;-62
2023/05/31 00:47:01;;;;;;;4.90;2.30;;;;;;;9.25;69.03;101397.67;105082;1261;73662;-61
2023/05/31 00:49:30;;;;;;;3.90;2.00;;;;;;;9.20;69.23;101400.55;104943;1265;83223;-61
2023/05/31 00:51:58;;;;;;;4.80;2.40;;;;;;;9.19;69.51;101403.54;105078;1265;73673;-61
2023/05/31 00:54:27;;;;;;;6.20;2.30;;;;;;;9.17;69.58;101403.91;104883;1267;69237;-61
2023/05/31 00:56:55;;;;;;;7.30;2.80;;;;;;;9.16;69.79;101412.45;105087;1263;69166;-61
2023/05/31 00:59:23;;;;;;;8.00;2.30;;;;;;;9.19;70.02;101412.08;105025;1264;74317;-61
2023/05/31 01:01:55;;;;;;;4.10;2.40;;;;;;;9.21;70.27;101411.52;105040;1264;83444;-61
2023/05/31 01:04:24;;;;;;;3.90;2.40;;;;;;;9.20;70.03;101410.67;105009;1264;72835;-61
2023/05/31 01:06:53;;;;;;;3.80;2.20;;;;;;;9.20;70.18;101411.89;105058;1261;69253;-61
2023/05/31 01:09:22;;;;;;;5.90;2.60;;;;;;;9.21;70.12;101409.80;105041;1261;69196;-61
2023/05/31 01:12:02;;;;;;;4.60;2.20;;;;;;;9.12;69.68;101411.13;105123;1264;74927;-61
2023/05/31 01:14:42;;;;;;;5.30;2.50;;;;;;;9.07;69.94;101416.61;104934;1260;82791;-61
2023/05/31 01:17:49;;;;;;;6.60;2.10;;;;;;;9.03;69.94;101417.55;105030;1260;73540;-61
2023/05/31 01:20:21;;;;;;;5.00;2.20;;;;;;;8.96;69.99;101412.60;105019;1263;69211;-61
2023/05/31 01:23:12;;;;;;;6.00;2.50;;;;;;;8.91;69.76;101414.74;105055;1264;69179;-61
2023/05/31 01:25:52;;;;;;;4.60;2.70;;;;;;;8.87;70.03;101415.16;104975;1261;73912;-61
2023/05/31 01:28:21;;;;;;;5.70;2.30;;;;;;;8.83;70.35;101413.28;105015;1260;82504;-61
2023/05/31 01:30:52;;;;;;;8.40;2.60;;;;;;;8.79;70.59;101411.27;105047;1263;73698;-61
2023/05/31 01:33:21;;;;;;;9.50;2.80;;;;;;;8.76;70.52;101414.09;104925;1267;69296;-61
2023/05/31 01:35:49;;;;;;;4.40;2.70;;;;;;;8.77;70.75;101410.77;105054;1260;69203;-61
2023/05/31 01:38:18;;;;;;;6.20;2.80;;;;;;;8.72;70.68;101410.13;105027;1259;73936;-61
2023/05/31 01:40:46;;;;;;;6.00;2.60;;;;;;;8.68;70.43;101410.36;104895;1260;82944;-61
2023/05/31 01:43:16;;;;;;;4.80;2.80;;;;;;;8.65;70.84;101413.54;105048;1264;74060;-61
2023/05/31 01:45:45;;;;;;;4.90;2.70;;;;;;;8.62;71.06;101412.70;105052;1260;69163;-61
2023/05/31 01:48:13;;;;;;;5.50;2.80;;;;;;;8.58;70.83;101409.44;105090;1260;69151;-61
2023/05/31 01:50:42;;;;;;;7.00;2.90;;;;;;;8.56;71.09;101409.30;105055;1261;74782;-61
2023/05/31 01:53:11;;;;;;;5.60;3.10;;;;;;;8.52;71.49;101409.52;105026;1274;83434;-61
2023/05/31 01:55:42;;;;;;;6.60;2.50;;;;;;;8.47;71.27;101410.79;104930;1266;74033;-61
2023/05/31 01:58:11;;;;;;;6.90;3.30;;;;;;;8.45;71.56;101408.90;105029;1259;69202;-60
2023/05/31 02:00:41;;;;;;;6.20;3.40;;;;;;;8.43;71.54;101408.92;105012;1265;69201;-61
2023/05/31 02:03:09;;;;;;;6.80;3.30;;;;;;;8.40;71.50;101410.00;104974;1264;73956;-61
2023/05/31 02:05:54;;;;;;;6.90;3.50;;;;;;;8.40;71.74;101415.58;105065;1260;83666;-61
2023/05/31 02:08:23;;;;;;;5.90;3.00;;;;;;;8.41;71.90;101415.56;104922;1264;73752;-61
2023/05/31 02:10:53;;;;;;;8.80;3.60;;;;;;;8.39;71.91;101413.85;104875;1265;69210;-61
2023/05/31 02:13:27;;;;;;;6.90;3.10;;;;;;;8.35;72.09;101414.05;104819;1260;69215;-61
2023/05/31 02:15:55;;;;;;;5.20;3.20;;;;;;;8.33;71.95;101415.28;104762;1261;73998;-61
2023/05/31 02:18:27;;;;;;;6.40;2.90;;;;;;;8.30;72.43;101416.52;104860;1262;83451;-62
2023/05/31 02:20:57;;;;;;;4.80;2.70;;;;;;;8.31;72.27;101420.70;104896;1259;73679;-61
2023/05/31 02:23:25;;;;;;;10.40;3.00;;;;;;;8.29;72.32;101421.95;104942;1267;69201;-61
2023/05/31 02:25:55;;;;;;;10.90;3.50;;;;;;;8.26;72.65;101417.27;104947;1265;69172;-61
2023/05/31 02:28:25;;;;;;;4.90;3.10;;;;;;;8.23;72.39;101413.83;105009;1261;75054;-61
2023/05/31 02:30:55;;;;;;;6.30;3.10;;;;;;;8.19;72.74;101411.27;104966;1264;83346;-61
2023/05/31 02:33:24;;;;;;;8.10;3.70;;;;;;;8.14;72.36;101412.02;104898;1259;71711;-61
2023/05/31 02:35:56;;;;;;;8.30;3.80;;;;;;;8.11;72.67;101409.61;104956;1260;69254;-61
2023/05/31 02:38:25;;;;;;;8.50;3.20;;;;;;;8.08;72.67;101408.41;105059;1263;69224;-61
2023/05/31 02:40:54;;;;;;;5.60;2.90;;;;;;;8.04;72.48;101412.64;105054;1260;73784;-61
2023/05/31 02:43:22;;;;;;;8.50;3.50;;;;;;;8.02;72.95;101411.61;104956;1266;83409;-61
2023/05/31 02:45:50;;;;;;;7.40;2.90;;;;;;;8.00;72.81;101410.77;104895;1264;72751;-61
2023/05/31 02:48:20;;;;;;;5.80;3.20;;;;;;;7.98;73.19;101409.91;104952;1260;69298;-61
2023/05/31 02:50:48;;;;;;;5.90;3.30;;;;;;;7.96;73.12;101414.46;104997;1264;69227;-61
2023/05/31 02:53:26;;;;;;;9.60;3.50;;;;;;;7.98;73.32;101415.83;105014;1260;74871;-61
2023/05/31 02:56:05;;;;;;;6.20;3.20;;;;;;;7.99;73.41;101415.30;105019;1261;83446;-61
2023/05/31 02:58:54;;;;;;;6.40;3.80;;;;;;;7.96;73.47;101420.56;104869;1259;72704;-61
2023/05/31 03:01:31;;;;;;;7.80;4.00;;;;;;;7.96;73.30;101421.09;104984;1259;69144;-61
2023/05/31 03:04:09;;;;;;;9.40;3.80;;;;;;;7.93;73.42;101419.02;105004;1264;69135;-61
2023/05/31 03:06:39;;;;;;;8.10;3.40;;;;;;;7.92;73.36;101420.42;105069;1260;74464;-61
2023/05/31 03:09:08;;;;;;;6.60;3.40;;;;;;;7.93;73.75;101419.36;105038;1263;83459;-61
2023/05/31 03:11:37;;;;;;;8.20;4.30;;;;;;;7.96;73.81;101420.91;105002;1261;74172;-61
2023/05/31 03:14:05;;;;;;;6.60;4.10;;;;;;;7.96;74.10;101422.48;105020;1264;69156;-61
2023/05/31 03:16:53;;;;;;;10.30;4.20;;;;;;;7.98;74.06;101427.49;105014;1263;69211;-61
2023/05/31 03:19:22;;;;;;;7.70;3.90;;;;;;;8.00;74.47;101425.38;105001;1260;73934;-61
2023/05/31 03:21:53;;;;;;;6.20;3.80;;;;;;;8.02;74.17;101425.89;104997;1264;82622;-61
2023/05/31 03:24:23;;;;;;;8.50;3.50;;;;;;;8.03;74.11;101425.17;104992;1263;72733;-61
2023/05/31 03:26:52;;;;;;;8.10;3.50;;;;;;;8.04;74.55;101425.16;105018;1259;69237;-61
2023/05/31 03:29:20;;;;;;;8.40;4.20;;;;;;;8.07;74.80;101420.95;104978;1259;69180;-61
2023/05/31 03:31:49;;;;;;;6.70;3.70;;;;;;;8.09;74.59;101424.94;105077;1263;72813;-61
2023/05/31 03:34:18;;;;;;;6.80;3.40;;;;;;;8.13;74.81;101424.56;105040;1260;83444;-61
2023/05/31 03:36:46;;;;;;;7.80;3.20;;;;;;;8.18;75.13;101422.92;105025;1260;73885;-61
2023/05/31 03:39:26;;;;;;;8.30;4.20;;;;;;;8.23;75.43;101422.70;104991;1263;69206;-61
2023/05/31 03:41:55;;;;;;;7.60;3.90;;;;;;;8.28;75.34;101424.92;105009;1261;69147;-61
2023/05/31 03:44:23;;;;;;;7.80;4.00;;;;;;;8.33;75.45;101429.23;105060;1264;74937;-61
2023/05/31 03:46:51;;;;;;;8.60;4.30;;;;;;;8.40;75.88;101432.80;105022;1259;82688;-61
2023/05/31 03:49:20;;;;;;;9.70;3.90;;;;;;;8.51;75.82;101431.65;105018;1264;73172;-61
2023/05/31 03:51:48;;;;;;;8.90;3.90;;;;;;;8.64;75.89;101433.73;105022;1264;69173;-61
2023/05/31 03:54:16;;;;;;;8.10;4.00;;;;;;;8.76;76.07;101432.89;104927;1262;69778;-61
2023/05/31 03:56:45;;;;;;;7.60;4.10;;;;;;;8.86;76.02;101435.73;104904;1260;73966;-61
2023/05/31 03:59:13;;;;;;;8.40;4.20;;;;;;;8.96;75.95;101437.51;105044;1259;82187;-61
2023/05/31 04:01:42;;;;;;;9.50;3.70;;;;;;;9.11;76.39;101432.25;105048;1259;73424;-61
2023/05/31 04:04:10;;;;;;;6.10;4.30;;;;;;;9.26;76.48;101432.90;104990;1263;69196;-61
2023/05/31 04:06:39;;;;;;;10.50;4.40;;;;;;;9.37;76.27;101433.42;104922;1265;69215;-61
2023/05/31 04:09:07;;;;;;;10.10;4.40;;;;;;;9.49;76.53;101431.85;105060;1261;75065;-61
2023/05/31 04:11:36;;;;;;;9.90;4.40;;;;;;;9.61;76.36;101430.44;104916;1260;82600;-61
2023/05/31 04:14:04;;;;;;;6.50;4.20;;;;;;;9.71;76.20;101431.48;104873;1260;72804;-61
2023/05/31 04:16:32;;;;;;;8.60;4.10;;;;;;;9.81;75.75;101432.36;104851;1265;69380;-61
2023/05/31 04:19:01;;;;;;;8.50;4.30;;;;;;;9.92;75.71;101434.61;105100;1264;69152;-61
2023/05/31 04:21:31;;;;;;;8.70;4.00;;;;;;;10.02;75.77;101428.33;104789;1265;74872;-62
2023/05/31 04:24:00;;;;;;;10.20;4.50;;;;;;;10.12;75.12;101427.09;104908;1264;82182;-62
2023/05/31 04:26:31;;;;;;;9.20;4.10;;;;;;;10.22;75.02;101427.08;105144;1263;73611;-62
2023/05/31 04:29:00;;;;;;;7.30;4.20;;;;;;;10.31;74.85;101427.27;105100;1263;69177;-62
2023/05/31 04:31:29;;;;;;;7.90;4.10;;;;;;;10.40;74.75;101422.75;105199;1260;69215;-61
2023/05/31 04:34:18;;;;;;;10.10;4.40;;;;;;;10.51;74.71;101424.08;105024;1259;74922;-62
2023/05/31 04:36:49;;;;;;;8.60;4.40;;;;;;;10.63;74.53;101424.71;105088;1259;83606;-62
2023/05/31 04:39:22;;;;;;;9.50;4.50;;;;;;;10.76;74.38;101424.80;104978;1264;72698;-62
2023/05/31 04:41:53;;;;;;;11.30;4.40;;;;;;;10.87;73.99;101428.75;104915;1261;69198;-62
2023/05/31 04:44:21;;;;;;;10.30;3.90;;;;;;;10.97;73.62;101431.67;105269;1259;69173;-62
2023/05/31 04:46:50;;;;;;;7.10;3.80;;;;;;;11.07;73.30;101433.91;104776;1264;74770;-62
2023/05/31 04:49:19;;;;;;;14.10;4.40;;;;;;;11.17;73.04;101432.27;105348;1259;83728;-62
2023/05/31 04:51:48;;;;;;;6.60;4.20;;;;;;;11.27;72.87;101432.05;105133;1263;72739;-62
2023/05/31 04:54:17;;;;;;;8.40;3.80;;;;;;;11.35;72.66;101434.83;105112;1261;69283;-63
2023/05/31 04:56:45;;;;;;;5.70;4.30;;;;;;;11.45;72.36;101435.65;105016;1264;69316;-62
2023/05/31 04:59:14;;;;;;;9.60;4.10;;;;;;;11.53;72.11;101431.58;105089;1259;75313;-62
2023/05/31 05:01:44;;;;;;;8.00;3.80;;;;;;;11.62;72.01;101432.08;104958;1261;83369;-62
2023/05/31 05:04:15;;;;;;;9.60;4.20;;;;;;;11.69;71.66;101425.95;105195;1264;72803;-62
2023/05/31 05:06:44;;;;;;;8.10;4.10;;;;;;;11.77;71.38;101420.83;105248;1263;69065;-62
2023/05/31 05:09:12;;;;;;;10.30;4.70;;;;;;;11.84;71.00;101415.77;105111;1263;69185;-62
2023/05/31 05:11:42;;;;;;;9.60;5.10;;;;;;;11.91;71.07;101418.25;105241;1262;74930;-62
2023/05/31 05:14:11;;;;;;;10.00;4.70;;;;;;;11.99;70.97;101412.95;104999;1264;83536;-62
2023/05/31 05:16:39;;;;;;;9.50;4.10;;;;;;;12.08;70.80;101417.08;105097;1262;72594;-62
2023/05/31 05:19:08;;;;;;;9.40;4.70;;;;;;;12.17;70.49;101413.52;105194;1261;69266;-60
2023/05/31 05:21:37;;;;;;;9.00;3.80;;;;;;;12.24;70.24;101412.28;105148;1259;69191;-61
2023/05/31 05:24:06;;;;;;;7.20;4.20;;;;;;;12.32;70.22;101420.98;105122;1264;74260;-59
2023/05/31 05:26:35;;;;;;;7.10;4.00;;;;;;;12.41;70.04;101419.48;105251;1259;82563;-61
2023/05/31 05:29:05;;;;;;;7.10;4.80;;;;;;;12.51;69.79;101422.54;105176;1259;73916;-61
2023/05/31 05:31:34;;;;;;;6.60;4.10;;;;;;;12.59;69.57;101424.05;105104;1259;69090;-61
2023/05/31 05:34:04;;;;;;;;;;;;;;;12.67;69.53;101425.95;104995;1260;69114;-61
2023/05/31 05:36:33;;;;;;;7.10;4.20;;;;;;;12.75;69.67;101424.30;104980;1260;74848;-61
2023/05/31 05:39:05;;;;;;;11.60;4.60;;;;;;;12.82;69.28;101427.23;105045;1259;82680;-61
2023/05/31 05:41:34;;;;;;;8.80;4.70;;;;;;;12.88;68.93;101422.49;105147;1264;73913;-61
2023/05/31 05:44:04;;;;;;;;;;;;;;;12.93;68.63;101420.06;105137;1260;69196;-60
2023/05/31 05:46:33;;;;;;;5.40;3.40;;;;;;;13.00;68.88;101419.70;105266;1261;69125;-61
2023/05/31 05:49:02;;;;;;;10.40;4.70;;;;;;;13.06;68.85;101420.75;105244;1262;74307;-61
2023/05/31 05:51:32;;;;;;;10.40;4.20;;;;;;;13.12;68.34;101421.41;105236;1262;83737;-61
2023/05/31 05:54:05;;;;;;;11.00;4.70;;;;;;;13.18;68.33;101417.19;105038;1259;73896;-61
2023/05/31 05:56:34;;;;;;;7.90;4.40;;;;;;;13.26;68.32;101419.77;105149;1259;69010;-61
2023/05/31 05:59:04;;;;;;;8.10;4.10;;;;;;;13.34;68.05;101417.41;104900;1260;69202;-61
2023/05/31 06:01:33;;;;;;;10.10;4.50;;;;;;;13.44;68.26;101416.94;105274;1263;73844;-61
2023/05/31 06:04:04;;;;;;;9.90;3.90;;;;;;;13.53;67.93;101419.27;105118;1259;82831;-61
2023/05/31 06:06:32;;;;;;;6.20;4.30;;;;;;;13.61;68.13;101420.91;105089;1259;73964;-63
2023/05/31 06:09:00;;;;;;;8.70;4.20;;;;;;;13.70;67.88;101423.60;107347;1259;69151;-61
2023/05/31 06:11:29;;;;;;;8.60;4.20;;;;;;;13.79;67.63;101424.70;105123;1264;69193;-62
2023/05/31 06:13:57;;;;;;;9.10;4.70;;;;;;;13.88;67.51;101426.34;105150;1262;73998;-61
2023/05/31 06:16:30;;;;;;;9.20;4.00;;;;;;;13.97;67.19;101428.46;105244;1260;82412;-60
2023/05/31 06:19:00;;;;;;;10.00;4.50;;;;;;;14.04;66.84;101427.86;105145;1260;72696;-60
2023/05/31 06:21:29;;;;;;;7.20;4.20;;;;;;;14.11;66.71;101426.94;105231;1258;69217;-59
2023/05/31 06:23:58;;;;;;;7.60;3.90;;;;;;;14.19;66.68;101428.05;105070;1260;69090;-60
2023/05/31 06:26:26;;;;;;;8.70;3.90;;;;;;;14.28;66.48;101429.85;104976;1260;74635;-61
2023/05/31 06:28:59;;;;;;;6.90;3.80;;;;;;;14.38;66.37;101431.80;105182;1259;83373;-60
2023/05/31 06:31:48;;;;;;;7.60;4.10;;;;;;;14.49;66.35;101425.92;105032;1260;73966;-60
2023/05/31 06:34:17;;;;;;;9.30;4.50;;;;;;;14.57;66.39;101424.95;105040;1260;69222;-59
2023/05/31 06:36:45;;;;;;;5.90;3.70;;;;;;;14.64;66.07;101423.98;105043;1260;69180;-60
2023/05/31 06:39:13;;;;;;;6.50;3.70;;;;;;;14.72;65.72;101422.27;105149;1259;74602;-60
2023/05/31 06:41:42;;;;;;;9.70;3.70;;;;;;;14.79;65.57;101421.11;105193;1260;83445;-60
2023/05/31 06:44:46;;;;;;;8.20;3.90;;;;;;;14.93;65.75;101421.64;104605;1265;73704;-60
2023/05/31 06:47:44;;;;;;;7.70;3.30;;;;;;;15.08;65.27;101419.84;105112;1264;69262;-60
2023/05/31 06:50:16;;;;;;;7.70;3.60;;;;;;;15.18;65.12;101415.01;105100;1264;69320;-60
2023/05/31 06:53:20;;;;;;;5.90;3.50;;;;;;;15.32;64.96;101413.04;104639;1270;74867;-60
2023/05/31 06:55:58;;;;;;;7.50;3.60;;;;;;;15.45;64.94;101408.48;104969;1264;83558;-60
2023/05/31 06:58:32;;;;;;;5.90;3.10;;;;;;;15.57;64.71;101407.26;105096;1260;73699;-60
2023/05/31 07:01:00;;;;;;;5.30;2.40;;;;;;;15.73;64.35;101408.77;105079;1260;69180;-60
2023/05/31 07:03:30;;;;;;;8.60;2.60;;;;;;;15.88;64.07;101407.23;105143;1260;69148;-60
2023/05/31 07:05:59;;;;;;;4.70;2.30;;;;;;;16.09;63.77;101405.43;105057;1260;74590;-60
2023/05/31 07:08:27;;;;;;;4.10;2.10;;;;;;;16.31;62.91;101408.30;105299;1261;83291;-60
2023/05/31 07:11:14;;;;;;;10.60;2.60;;;;;;;16.50;62.01;101406.40;105096;1261;73941;-61
2023/05/31 07:13:43;;;;;;;6.50;2.30;;;;;;;16.65;61.68;101402.88;105047;1261;69265;-61
2023/05/31 07:16:11;;;;;;;4.90;2.30;;;;;;;16.79;61.09;101401.56;105084;1264;69171;-60
2023/05/31 07:18:40;;;;;;;5.50;2.40;;;;;;;16.90;60.36;101399.80;105067;1259;74865;-59
2023/05/31 07:21:09;;;;;;;7.40;2.20;;;;;;;17.01;60.13;101400.89;105232;1263;81768;-59
2023/05/31 07:23:37;;;;;;;5.60;3.10;;;;;;;17.13;59.78;101400.14;105256;1260;72787;-59
2023/05/31 07:26:06;;;;;;;9.00;2.40;;;;;;;17.21;59.25;101395.14;105217;1262;69092;-59
2023/05/31 07:28:34;;;;;;;7.10;2.30;;;;;;;17.30;58.97;101393.99;105156;1259;69209;-59
2023/05/31 07:31:03;;;;;;;4.30;2.30;;;;;;;17.45;58.46;101392.20;105276;1260;73919;-59
2023/05/31 07:33:31;;;;;;;7.60;2.40;;;;;;;17.55;58.11;101392.20;105267;1260;83910;-60
2023/05/31 07:36:00;;;;;;;4.30;2.30;;;;;;;17.70;58.02;101386.02;105053;1262;72809;-60
2023/05/31 07:38:29;;;;;;;8.00;2.40;;;;;;;17.81;57.27;101380.83;105082;1259;69168;-60
2023/05/31 07:40:57;;;;;;;5.50;2.20;;;;;;;17.88;56.74;101383.84;105155;1260;69189;-60
2023/05/31 07:43:26;;;;;;;5.60;2.00;;;;;;;17.91;56.06;101380.16;105114;1260;75011;-60
2023/05/31 07:45:56;;;;;;;5.90;2.60;;;;;;;17.93;55.58;101376.85;105174;1261;83122;-60
2023/05/31 07:48:25;;;;;;;3.30;2.00;;;;;;;17.96;55.11;101377.98;105076;1259;73891;-60
2023/05/31 07:50:53;;;;;;;4.90;2.00;;;;;;;17.95;54.58;101375.34;105116;1259;69167;-60
2023/05/31 07:53:21;;;;;;;6.60;2.20;;;;;;;17.96;54.22;101372.14;105128;1260;69205;-60
2023/05/31 07:55:50;;;;;;;3.30;1.90;;;;;;;18.00;54.19;101371.53;105100;1260;74624;-60
2023/05/31 07:58:19;;;;;;;3.90;1.70;;;;;;;18.05;53.94;101366.88;105132;1260;83518;-60
2023/05/31 08:00:50;;;;;;;3.20;1.50;;;;;;;18.10;53.60;101368.90;105057;1262;73649;-60
2023/05/31 08:03:18;;;;;;;4.60;1.70;;;;;;;18.15;53.11;101374.47;105092;1259;69228;-60
2023/05/31 08:05:48;;;;;;;4.60;1.50;;;;;;;18.18;52.65;101370.96;105133;1262;69119;-59
2023/05/31 08:08:17;;;;;;;4.40;1.30;;;;;;;18.20;52.26;101371.34;105090;1260;74540;-60
2023/05/31 08:10:46;;;;;;;3.80;1.30;;;;;;;18.24;51.81;101369.05;105068;1262;83298;-60
2023/05/31 08:13:14;;;;;;;4.70;1.50;;;;;;;18.31;51.72;101374.17;105133;1262;73665;-60
2023/05/31 08:15:42;;;;;;;3.80;1.40;;;;;;;18.35;51.43;101365.64;105114;1262;69212;-60
2023/05/31 08:18:10;;;;;;;2.90;1.50;;;;;;;18.44;51.19;101369.90;105042;1260;69180;-60
2023/05/31 08:20:39;;;;;;;6.20;1.70;;;;;;;18.52;50.83;101368.07;105042;1262;73247;-60
2023/05/31 08:23:08;;;;;;;3.50;1.70;;;;;;;18.62;50.50;101366.65;105130;1260;83087;-60
2023/05/31 08:25:40;;;;;;;3.40;1.60;;;;;;;18.69;50.15;101363.23;105040;1260;72774;-60
2023/05/31 08:28:08;;;;;;;4.50;1.30;;;;;;;18.76;49.89;101358.58;105073;1260;69197;-60
2023/05/31 08:30:37;;;;;;;4.70;1.40;;;;;;;18.91;50.09;101357.95;105101;1260;69071;-60
2023/05/31 08:33:05;;;;;;;5.90;1.70;;;;;;;19.18;50.31;101357.82;105084;1260;75069;-60
2023/05/31 08:35:34;;;;;;;3.70;1.50;;;;;;;19.47;50.64;101359.32;105104;1260;83836;-60
2023/05/31 08:38:02;;;;;;;3.30;1.60;;;;;;;19.74;50.19;101358.47;105049;1262;72866;-60
2023/05/31 08:40:31;;;;;;;5.50;2.00;;;;;;;19.86;49.55;101356.48;105113;1260;69240;-60
2023/05/31 08:43:02;;;;;;;4.30;1.50;;;;;;;19.94;49.18;101359.75;105110;1262;69298;-60
2023/05/31 08:45:34;;;;;;;6.60;1.90;;;;;;;20.00;48.93;101357.95;105075;1260;73857;-60
2023/05/31 08:48:10;;;;;;;5.30;1.80;;;;;;;20.05;48.75;101353.69;105086;1260;82616;-60
2023/05/31 08:50:41;;;;;;;5.50;1.90;;;;;;;20.12;48.37;101348.02;105082;1260;73091;-60
2023/05/31 08:53:10;;;;;;;4.70;1.70;;;;;;;20.21;48.35;101346.49;105065;1260;69218;-60
2023/05/31 08:55:39;;;;;;;3.50;1.80;;;;;;;20.34;48.37;101347.48;105025;1259;69190;-60
2023/05/31 08:58:07;;;;;;;3.90;1.80;;;;;;;20.46;47.88;101350.27;105098;1259;73925;-61
2023/05/31 09:00:36;;;;;;;4.00;1.60;;;;;;;20.59;47.50;101349.11;105025;1259;83930;-61
2023/05/31 09:03:08;;;;;;;3.80;1.70;;;;;;;20.66;46.74;101348.48;105097;1261;74119;-60
2023/05/31 09:05:37;;;;;;;4.80;1.40;;;;;;;20.71;46.47;101348.14;105045;1263;69205;-60
2023/05/31 09:08:06;;;;;;;5.20;1.70;;;;;;;20.79;45.97;101347.11;105077;1259;69070;-60
2023/05/31 09:10:34;;;;;;;5.60;2.00;;;;;;;20.85;45.86;101343.89;105079;1259;73869;-60
2023/05/31 09:13:03;;;;;;;3.60;1.70;;;;;;;20.99;46.06;101344.55;105069;1259;83819;-61
2023/05/31 09:15:32;;;;;;;3.00;1.50;;;;;;;21.13;45.39;101340.77;105041;1264;73977;-61
2023/05/31 09:18:15;;;;;;;4.30;1.50;;;;;;;21.24;45.34;101337.39;105004;1259;69221;-61
2023/05/31 09:20:49;;;;;;;5.90;1.80;;;;;;;21.34;44.83;101337.96;105038;1264;69761;-60
2023/05/31 09:23:18;;;;;;;5.60;1.70;;;;;;;21.38;44.44;101337.20;105033;1259;74881;-61
2023/05/31 09:25:48;;;;;;;5.90;1.80;;;;;;;21.39;44.09;101333.05;105063;1259;82596;-60
2023/05/31 09:28:17;;;;;;;;;;;;;;;21.44;44.14;101333.25;105039;1259;72765;-61
2023/05/31 09:30:46;;;;;;;6.00;1.70;;;;;;;21.62;44.31;101329.50;105078;1263;69221;-61
2023/05/31 09:33:14;;;;;;;3.50;1.50;;;;;;;21.84;44.07;101325.54;105052;1264;69219;-61
2023/05/31 09:36:00;;;;;;;4.50;1.70;;;;;;;22.01;43.61;101322.39;105068;1265;74014;-60
2023/05/31 09:38:33;;;;;;;3.50;1.40;;;;;;;22.11;43.01;101320.98;105024;1264;83345;-61
2023/05/31 09:41:18;;;;;;;6.60;1.50;;;;;;;22.29;43.28;101313.64;105009;1259;73757;-60
2023/05/31 09:43:48;;;;;;;4.10;1.50;;;;;;;22.57;43.35;101315.73;105021;1259;69037;-61
2023/05/31 09:46:18;;;;;;;5.50;1.70;;;;;;;22.80;42.81;101318.67;105036;1259;69126;-61
2023/05/31 09:49:04;;;;;;;3.20;1.40;;;;;;;23.00;42.16;101321.87;105035;1263;74252;-61
2023/05/31 09:51:34;;;;;;;5.40;1.90;;;;;;;23.16;42.01;101321.17;105019;1261;83123;-61
2023/05/31 09:54:17;;;;;;;5.20;1.70;;;;;;;23.31;41.67;101318.05;104994;1259;74581;-62
2023/05/31 09:56:45;;;;;;;3.20;1.60;;;;;;;23.51;41.32;101314.95;104935;1265;69155;-61
2023/05/31 09:59:15;;;;;;;2.80;1.30;;;;;;;23.73;41.02;101306.14;105025;1264;69170;-61
2023/05/31 10:01:44;;;;;;;;;;;;;;;23.87;40.58;101309.33;105067;1259;73993;-61
2023/05/31 10:04:12;;;;;;;3.40;2.00;;;;;;;23.96;40.12;101309.85;104969;1264;83481;-61
2023/05/31 10:06:41;;;;;;;2.80;1.20;;;;;;;24.09;39.84;101306.89;104954;1263;74084;-61
2023/05/31 10:09:09;;;;;;;3.60;1.40;;;;;;;24.21;39.43;101306.79;104883;1265;69131;-61
2023/05/31 10:11:41;;;;;;;5.30;1.70;;;;;;;24.32;38.48;101304.52;105063;1259;69114;-61
2023/05/31 10:14:16;;;;;;;6.40;1.50;;;;;;;24.38;38.48;101305.95;105044;1264;75174;-61
2023/05/31 10:16:54;;;;;;;3.90;1.20;;;;;;;24.62;38.80;101310.29;105078;1259;82503;-61
2023/05/31 10:19:24;;;;;;;2.80;1.40;;;;;;;24.93;38.36;101310.77;105016;1264;73059;-61
2023/05/31 10:21:53;;;;;;;4.90;1.70;;;;;;;25.12;37.82;101305.79;105042;1260;69206;-61
2023/05/31 10:24:26;;;;;;;3.80;1.50;;;;;;;25.30;37.10;101299.45;104815;1265;69176;-61
2023/05/31 10:27:14;;;;;;;3.60;1.20;;;;;;;25.47;36.75;101292.98;105061;1259;73974;-61
2023/05/31 10:29:48;;;;;;;4.00;1.50;;;;;;;25.77;36.70;101286.13;105030;1260;83664;-61
2023/05/31 10:32:23;;;;;;;2.70;1.40;;;;;;;26.09;35.85;101280.47;105030;1259;72855;-61
2023/05/31 10:34:52;;;;;;;3.30;1.20;;;;;;;26.34;35.52;101280.23;105003;1264;69186;-61
2023/05/31 10:37:21;;;;;;;3.50;1.40;;;;;;;26.69;35.13;101277.95;105054;1259;69094;-61
2023/05/31 10:40:19;;;;;;;8.20;1.60;;;;;;;27.01;34.47;101272.65;105099;1259;74809;-61
2023/05/31 10:42:56;;;;;;;4.60;1.10;;;;;;;27.37;33.59;101270.23;105040;1259;83542;-61
2023/05/31 10:45:46;;;;;;;2.30;1.40;;;;;;;27.48;33.10;101264.39;105047;1259;73748;-61
2023/05/31 10:48:19;;;;;;;2.80;1.40;;;;;;;27.72;32.73;101266.36;104985;1259;69186;-61
2023/05/31 10:50:56;;;;;;;4.80;1.50;;;;;;;27.93;32.42;101263.99;105006;1263;69234;-60
2023/05/31 10:53:35;;;;;;;5.40;1.50;;;;;;;28.17;32.39;101259.54;104996;1264;74203;-61
2023/05/31 10:56:06;;;;;;;3.90;1.70;;;;;;;28.57;32.01;101265.31;105030;1260;83865;-62
2023/05/31 10:58:39;;;;;;;3.50;1.40;;;;;;;28.89;31.27;101261.75;105046;1260;73855;-62
2023/05/31 11:01:15;;;;;;;3.00;1.30;;;;;;;29.01;30.38;101256.36;105000;1265;69205;-61
2023/05/31 11:03:51;;;;;;;5.30;1.20;;;;;;;29.01;29.70;101256.52;104997;1260;69145;-61
2023/05/31 11:06:28;;;;;;;3.90;1.30;;;;;;;28.98;29.43;101252.69;105019;1264;74943;-61
2023/05/31 11:08:57;;;;;;;2.20;1.30;;;;;;;29.13;29.47;101249.63;105028;1263;83458;-61
2023/05/31 11:11:32;;;;;;;4.90;1.40;;;;;;;29.24;29.25;101247.89;104976;1260;73976;-61
2023/05/31 11:14:10;;;;;;;2.40;1.10;;;;;;;29.31;29.16;101247.54;105016;1264;69119;-61
2023/05/31 11:16:47;;;;;;;2.60;1.10;;;;;;;29.52;29.15;101243.06;105028;1259;69098;-60
2023/05/31 11:19:17;;;;;;;2.20;1.20;;;;;;;29.80;28.84;101238.69;105002;1263;74430;-61
2023/05/31 11:21:48;;;;;;;5.30;1.40;;;;;;;30.08;28.79;101235.05;105038;1259;82500;-61
2023/05/31 11:24:28;;;;;;;4.40;1.30;;;;;;;30.31;28.54;101234.89;105031;1259;73827;-60
2023/05/31 11:27:00;;;;;;;2.20;1.10;;;;;;;30.60;27.84;101232.98;104996;1259;69180;-60
2023/05/31 11:29:51;;;;;;;2.70;1.20;;;;;;;30.80;27.38;101231.90;104995;1264;69129;-60
2023/05/31 11:32:22;;;;;;;1.80;1.10;;;;;;;30.90;26.80;101231.23;104932;1259;74726;-60
2023/05/31 11:35:00;;;;;;;3.00;1.20;;;;;;;30.85;26.35;101226.70;105024;1265;83450;-60
2023/05/31 11:37:29;;;;;;;3.50;1.40;;;;;;;30.80;26.04;101223.84;105019;1264;73303;-61
2023/05/31 11:40:02;;;;;;;3.20;1.20;;;;;;;30.99;26.30;101225.14;105068;1260;69191;-60